createdAt,value
2022-07-28T00:00:12.750Z,24.10
2022-07-28T00:02:39.937Z,24.00
2022-07-28T00:05:08.055Z,23.90
2022-07-28T00:07:35.236Z,23.90
2022-07-28T00:10:02.405Z,23.80
2022-07-28T00:12:29.515Z,23.90
2022-07-28T00:14:56.676Z,23.90
2022-07-28T00:17:23.751Z,23.60
2022-07-28T00:19:51.014Z,23.80
2022-07-28T00:22:18.657Z,23.70
2022-07-28T00:24:45.902Z,23.70
2022-07-28T00:27:19.153Z,23.70
2022-07-28T00:29:50.363Z,23.80
2022-07-28T00:32:18.814Z,23.80
2022-07-28T00:34:46.038Z,23.80
2022-07-28T00:37:14.830Z,23.80
2022-07-28T00:39:42.593Z,23.80
2022-07-28T00:42:09.788Z,23.70
2022-07-28T00:44:39.224Z,23.60
2022-07-28T00:47:06.612Z,23.60
2022-07-28T00:49:34.266Z,23.50
2022-07-28T00:52:03.342Z,23.60
2022-07-28T00:54:30.659Z,23.60
2022-07-28T00:56:58.324Z,23.60
2022-07-28T00:59:25.538Z,23.70
2022-07-28T01:01:53.523Z,23.70
2022-07-28T01:04:22.144Z,23.60
2022-07-28T01:07:02.972Z,23.60
2022-07-28T01:10:02.910Z,23.60
2022-07-28T01:12:33.370Z,23.60
2022-07-28T01:15:06.743Z,23.60
2022-07-28T01:17:40.399Z,23.50
2022-07-28T01:20:16.602Z,23.50
2022-07-28T01:22:52.897Z,23.40
2022-07-28T01:25:48.590Z,23.50
2022-07-28T01:28:34.702Z,23.40
2022-07-28T01:31:03.812Z,23.40
2022-07-28T01:33:37.258Z,23.50
2022-07-28T01:36:09.968Z,23.50
2022-07-28T01:38:38.044Z,23.50
2022-07-28T01:41:07.802Z,23.40
2022-07-28T01:43:37.043Z,23.40
2022-07-28T01:46:04.722Z,23.40
2022-07-28T01:48:34.335Z,23.40
2022-07-28T01:51:02.448Z,23.40
2022-07-28T01:53:31.540Z,23.40
2022-07-28T01:56:05.896Z,23.30
2022-07-28T01:58:34.354Z,23.40
2022-07-28T02:01:03.593Z,23.40
2022-07-28T02:03:31.789Z,23.40
2022-07-28T02:05:59.836Z,23.40
2022-07-28T02:08:27.213Z,23.40
2022-07-28T02:11:14.395Z,23.40
2022-07-28T02:13:42.266Z,23.40
2022-07-28T02:16:10.633Z,23.40
2022-07-28T02:18:39.221Z,23.40
2022-07-28T02:21:07.765Z,23.30
2022-07-28T02:23:35.160Z,23.30
2022-07-28T02:26:04.575Z,23.30
2022-07-28T02:28:31.987Z,23.30
2022-07-28T02:31:01.668Z,23.30
2022-07-28T02:33:58.358Z,23.30
2022-07-28T02:36:19.943Z,23.10
2022-07-28T02:38:49.638Z,23.20
2022-07-28T02:41:22.627Z,23.20
2022-07-28T02:43:51.430Z,23.20
2022-07-28T02:46:31.153Z,23.10
2022-07-28T02:49:05.132Z,23.10
2022-07-28T02:51:33.664Z,23.10
2022-07-28T02:54:01.657Z,23.10
2022-07-28T02:56:29.264Z,23.20
2022-07-28T02:58:57.640Z,23.10
2022-07-28T03:01:25.437Z,23.10
2022-07-28T03:03:55.376Z,23.00
2022-07-28T03:06:28.535Z,23.00
2022-07-28T03:08:57.399Z,23.00
2022-07-28T03:11:24.852Z,23.00
2022-07-28T03:13:51.952Z,22.90
2022-07-28T03:16:19.145Z,22.90
2022-07-28T03:18:46.500Z,22.90
2022-07-28T03:21:13.594Z,22.80
2022-07-28T03:23:42.196Z,22.80
2022-07-28T03:26:15.765Z,22.70
2022-07-28T03:28:45.054Z,22.60
2022-07-28T03:31:14.015Z,22.60
2022-07-28T03:33:41.624Z,22.60
2022-07-28T03:36:11.179Z,22.60
2022-07-28T03:38:41.263Z,22.70
2022-07-28T03:41:08.840Z,22.60
2022-07-28T03:43:36.183Z,22.70
2022-07-28T03:46:03.717Z,22.60
2022-07-28T03:48:33.639Z,22.60
2022-07-28T03:51:00.764Z,22.70
2022-07-28T03:53:28.699Z,22.60
2022-07-28T03:55:56.472Z,22.60
2022-07-28T03:58:28.971Z,22.70
2022-07-28T04:00:56.861Z,22.70
2022-07-28T04:03:42.650Z,22.70
2022-07-28T04:06:12.542Z,22.80
2022-07-28T04:08:40.263Z,22.80
2022-07-28T04:11:07.467Z,22.80
2022-07-28T04:13:36.955Z,22.80
2022-07-28T04:16:04.637Z,22.90
2022-07-28T04:18:31.666Z,22.90
2022-07-28T04:20:59.109Z,22.90
2022-07-28T04:23:26.716Z,22.90
2022-07-28T04:25:53.874Z,23.00
2022-07-28T04:28:21.128Z,23.00
2022-07-28T04:30:48.452Z,23.00
2022-07-28T04:33:15.693Z,23.10
2022-07-28T04:35:42.774Z,23.10
2022-07-28T04:38:10.782Z,23.10
2022-07-28T04:40:39.169Z,23.10
2022-07-28T04:43:06.549Z,23.10
2022-07-28T04:45:33.752Z,23.20
2022-07-28T04:48:01.158Z,23.20
2022-07-28T04:50:28.384Z,23.20
2022-07-28T04:52:59.211Z,23.30
2022-07-28T04:55:26.433Z,23.30
2022-07-28T04:57:53.933Z,23.30
2022-07-28T05:00:23.042Z,23.30
2022-07-28T05:02:51.462Z,23.30
2022-07-28T05:05:18.812Z,23.30
2022-07-28T05:07:45.921Z,23.30
2022-07-28T05:10:13.476Z,23.30
2022-07-28T05:12:41.598Z,23.30
2022-07-28T05:15:09.013Z,23.30
2022-07-28T05:17:37.260Z,23.40
2022-07-28T05:20:05.398Z,23.40
2022-07-28T05:22:42.676Z,23.50
2022-07-28T05:25:13.657Z,23.50
2022-07-28T05:27:40.826Z,23.60
2022-07-28T05:30:08.431Z,23.60
2022-07-28T05:32:35.451Z,23.70
2022-07-28T05:35:02.569Z,23.80
2022-07-28T05:37:29.767Z,23.90
2022-07-28T05:39:57.280Z,23.90
2022-07-28T05:42:26.804Z,23.90
2022-07-28T05:44:53.956Z,23.90
2022-07-28T05:47:21.173Z,24.00
2022-07-28T05:49:48.340Z,24.10
2022-07-28T05:52:16.148Z,24.10
2022-07-28T05:54:43.306Z,24.10
2022-07-28T05:57:15.352Z,24.10
2022-07-28T05:59:43.108Z,24.10
2022-07-28T06:02:11.269Z,24.10
2022-07-28T06:04:38.390Z,24.20
2022-07-28T06:07:05.663Z,24.30
2022-07-28T06:09:32.842Z,24.30
2022-07-28T06:12:00.605Z,24.40
2022-07-28T06:14:27.828Z,24.50
2022-07-28T06:16:55.165Z,24.50
2022-07-28T06:19:22.428Z,24.60
2022-07-28T06:21:52.752Z,24.60
2022-07-28T06:24:19.961Z,24.70
2022-07-28T06:26:47.150Z,24.70
2022-07-28T06:29:14.339Z,24.70
2022-07-28T06:31:41.447Z,24.80
2022-07-28T06:34:08.837Z,24.80
2022-07-28T06:36:36.078Z,24.90
2022-07-28T06:39:03.333Z,24.80
2022-07-28T06:41:30.483Z,24.80
2022-07-28T06:43:57.650Z,24.90
2022-07-28T06:46:24.840Z,24.90
2022-07-28T06:48:52.279Z,24.90
2022-07-28T06:51:20.195Z,24.90
2022-07-28T06:53:48.867Z,24.90
2022-07-28T06:56:16.859Z,25.00
2022-07-28T06:58:47.174Z,25.10
2022-07-28T07:01:15.419Z,25.20
2022-07-28T07:03:43.564Z,25.20
2022-07-28T07:06:11.381Z,25.20
2022-07-28T07:08:38.622Z,25.20
2022-07-28T07:11:05.761Z,25.30
2022-07-28T07:13:33.417Z,25.30
2022-07-28T07:16:00.881Z,25.30
2022-07-28T07:18:28.085Z,25.30
2022-07-28T07:20:57.008Z,25.30
2022-07-28T07:23:24.254Z,25.30
2022-07-28T07:25:51.793Z,25.30
2022-07-28T07:28:18.989Z,25.20
2022-07-28T07:30:46.140Z,25.30
2022-07-28T07:33:13.268Z,25.40
2022-07-28T07:35:40.890Z,25.60
2022-07-28T07:38:08.069Z,25.70
2022-07-28T07:40:35.209Z,25.80
2022-07-28T07:43:02.530Z,25.80
2022-07-28T07:45:30.033Z,25.90
2022-07-28T07:47:57.579Z,25.90
2022-07-28T07:50:24.681Z,26.10
2022-07-28T07:52:52.147Z,26.40
2022-07-28T07:55:19.198Z,26.90
2022-07-28T07:57:46.403Z,26.90
2022-07-28T08:00:29.327Z,26.90
2022-07-28T08:02:57.493Z,26.80
2022-07-28T08:05:34.593Z,26.80
2022-07-28T08:08:04.297Z,26.90
2022-07-28T08:10:31.567Z,27.10
2022-07-28T08:12:58.834Z,27.40
2022-07-28T08:15:25.981Z,27.60
2022-07-28T08:17:53.133Z,27.80
2022-07-28T08:20:20.514Z,27.90
2022-07-28T08:22:48.872Z,28.00
2022-07-28T08:25:16.179Z,28.10
2022-07-28T08:27:43.233Z,28.20
2022-07-28T08:30:11.806Z,28.20
2022-07-28T08:32:38.874Z,28.10
2022-07-28T08:35:31.918Z,28.20
2022-07-28T08:37:53.293Z,28.50
2022-07-28T08:40:23.469Z,28.40
2022-07-28T08:43:03.512Z,28.10
2022-07-28T08:45:35.511Z,28.00
2022-07-28T08:48:09.510Z,28.00
2022-07-28T08:50:38.663Z,28.10
2022-07-28T08:53:06.578Z,28.30
2022-07-28T08:55:35.978Z,28.50
2022-07-28T08:58:04.278Z,28.50
2022-07-28T09:00:31.639Z,28.70
2022-07-28T09:02:59.778Z,28.70
2022-07-28T09:05:27.057Z,28.70
2022-07-28T09:07:55.822Z,28.50
2022-07-28T09:10:23.721Z,28.50
2022-07-28T09:12:51.446Z,28.60
2022-07-28T09:15:18.730Z,28.80
2022-07-28T09:17:45.947Z,28.90
2022-07-28T09:20:14.051Z,29.10
2022-07-28T09:23:00.028Z,29.10
2022-07-28T09:25:27.969Z,29.10
2022-07-28T09:27:55.832Z,29.20
2022-07-28T09:30:30.513Z,29.10
2022-07-28T09:33:42.372Z,29.10
2022-07-28T09:36:03.494Z,29.40
2022-07-28T09:38:39.889Z,29.50
2022-07-28T09:41:07.726Z,29.50
2022-07-28T09:43:36.013Z,29.40
2022-07-28T09:46:08.231Z,29.40
2022-07-28T09:48:49.925Z,29.10
2022-07-28T09:51:18.488Z,29.00
2022-07-28T09:53:45.647Z,28.90
2022-07-28T09:56:13.388Z,29.00
2022-07-28T09:58:41.130Z,29.10
2022-07-28T10:01:13.042Z,29.30
2022-07-28T10:03:41.478Z,29.30
2022-07-28T10:06:13.668Z,29.20
2022-07-28T10:08:48.830Z,29.20
2022-07-28T10:11:17.935Z,29.10
2022-07-28T10:13:59.202Z,29.00
2022-07-28T10:16:30.572Z,29.00
2022-07-28T10:18:59.896Z,29.30
2022-07-28T10:21:27.841Z,29.30
2022-07-28T10:24:04.873Z,29.30
2022-07-28T10:26:32.885Z,29.20
2022-07-28T10:29:02.983Z,29.40
2022-07-28T10:31:34.729Z,29.50
2022-07-28T10:34:03.602Z,29.50
2022-07-28T10:36:32.656Z,29.50
2022-07-28T10:39:02.793Z,29.60
2022-07-28T10:41:34.788Z,29.70
2022-07-28T10:44:03.276Z,29.70
2022-07-28T10:46:32.162Z,29.70
2022-07-28T10:49:03.759Z,29.70
2022-07-28T10:51:31.806Z,29.90
2022-07-28T10:54:05.489Z,29.90
2022-07-28T10:56:45.089Z,29.90
2022-07-28T10:59:22.690Z,30.00
2022-07-28T11:01:56.302Z,29.80
2022-07-28T11:04:41.945Z,29.90
2022-07-28T11:07:10.804Z,29.80
2022-07-28T11:09:37.881Z,29.70
2022-07-28T11:12:05.175Z,29.80
2022-07-28T11:14:37.035Z,29.90
2022-07-28T11:17:05.084Z,30.00
2022-07-28T11:19:51.538Z,30.00
2022-07-28T11:22:29.633Z,29.90
2022-07-28T11:25:19.880Z,29.90
2022-07-28T11:27:50.258Z,29.70
2022-07-28T11:30:17.896Z,29.50
2022-07-28T11:32:51.154Z,29.70
2022-07-28T11:35:19.349Z,29.90
2022-07-28T11:38:01.993Z,30.00
2022-07-28T11:40:30.515Z,30.10
2022-07-28T11:43:16.419Z,30.10
2022-07-28T11:46:12.076Z,30.20
2022-07-28T11:48:40.297Z,30.20
2022-07-28T11:51:07.744Z,30.20
2022-07-28T11:53:35.590Z,30.30
2022-07-28T11:56:03.589Z,30.50
2022-07-28T11:58:31.127Z,30.50
2022-07-28T12:01:18.958Z,30.50
2022-07-28T12:03:55.434Z,30.50
2022-07-28T12:06:35.470Z,30.40
2022-07-28T12:09:07.265Z,30.50
2022-07-28T12:11:35.832Z,30.50
2022-07-28T12:14:04.662Z,30.60
2022-07-28T12:16:32.835Z,30.70
2022-07-28T12:19:01.751Z,30.60
2022-07-28T12:21:55.723Z,30.70
2022-07-28T12:24:45.840Z,30.70
2022-07-28T12:27:15.142Z,30.90
2022-07-28T12:29:43.972Z,30.80
2022-07-28T12:32:16.079Z,30.80
2022-07-28T12:34:45.381Z,30.70
2022-07-28T12:37:13.437Z,30.70
2022-07-28T12:39:42.910Z,30.80
2022-07-28T12:42:11.178Z,30.90
2022-07-28T12:44:39.309Z,30.80
2022-07-28T12:47:08.355Z,30.80
2022-07-28T12:49:36.193Z,30.80
2022-07-28T12:52:18.525Z,30.90
2022-07-28T12:54:53.504Z,30.80
2022-07-28T12:57:48.084Z,30.40
2022-07-28T13:00:20.060Z,30.50
2022-07-28T13:02:48.273Z,30.60
2022-07-28T13:05:30.783Z,30.80
2022-07-28T13:08:01.980Z,30.70
2022-07-28T13:10:31.236Z,30.80
2022-07-28T13:13:02.965Z,30.90
2022-07-28T13:15:30.470Z,30.90
2022-07-28T13:17:58.604Z,31.00
2022-07-28T13:20:26.331Z,31.20
2022-07-28T13:22:54.735Z,31.20
2022-07-28T13:25:22.579Z,31.30
2022-07-28T13:27:55.222Z,31.50
2022-07-28T13:30:23.737Z,31.40
2022-07-28T13:32:51.188Z,31.30
2022-07-28T13:35:19.095Z,31.00
2022-07-28T13:37:48.370Z,30.80
2022-07-28T13:40:15.471Z,30.70
2022-07-28T13:42:53.167Z,30.60
2022-07-28T13:45:25.182Z,30.60
2022-07-28T13:47:57.193Z,30.60
2022-07-28T13:50:24.782Z,30.70
2022-07-28T13:52:52.075Z,30.70
2022-07-28T13:55:22.729Z,30.70
2022-07-28T13:57:50.413Z,31.00
2022-07-28T14:00:22.648Z,30.90
2022-07-28T14:02:50.285Z,31.00
2022-07-28T14:05:17.493Z,31.20
2022-07-28T14:07:48.785Z,31.30
2022-07-28T14:10:19.373Z,31.30
2022-07-28T14:12:46.759Z,31.40
2022-07-28T14:15:14.479Z,31.20
2022-07-28T14:17:43.475Z,31.10
2022-07-28T14:20:13.192Z,31.20
2022-07-28T14:22:40.441Z,31.20
2022-07-28T14:25:08.007Z,31.20
2022-07-28T14:27:35.224Z,31.20
2022-07-28T14:30:03.428Z,31.20
2022-07-28T14:32:32.365Z,31.20
2022-07-28T14:34:59.643Z,31.10
2022-07-28T14:37:29.359Z,31.00
2022-07-28T14:39:56.882Z,30.90
2022-07-28T14:42:25.572Z,30.80
2022-07-28T14:44:53.337Z,30.80
2022-07-28T14:47:22.385Z,30.80
2022-07-28T14:49:57.754Z,30.80
2022-07-28T14:52:26.839Z,30.80
2022-07-28T14:54:54.450Z,30.80
2022-07-28T14:57:24.448Z,30.80
2022-07-28T15:00:11.307Z,30.80
2022-07-28T15:02:38.776Z,30.70
2022-07-28T15:05:07.110Z,30.70
2022-07-28T15:07:34.200Z,30.70
2022-07-28T15:10:01.465Z,30.60
2022-07-28T15:12:28.777Z,30.60
2022-07-28T15:14:55.871Z,30.60
2022-07-28T15:17:23.072Z,30.60
2022-07-28T15:19:50.358Z,30.40
2022-07-28T15:22:17.866Z,30.20
2022-07-28T15:24:45.931Z,30.10
2022-07-28T15:39:31.784Z,30.00
2022-07-28T15:41:59.715Z,30.00
2022-07-28T15:44:27.546Z,29.90
2022-07-28T15:46:55.058Z,29.80
2022-07-28T15:49:22.901Z,29.70
2022-07-28T15:51:50.800Z,29.70
2022-07-28T15:54:19.137Z,29.70
2022-07-28T15:56:46.772Z,29.80
2022-07-28T15:59:14.074Z,29.80
2022-07-28T16:01:45.451Z,29.60
2022-07-28T16:04:13.369Z,29.60
2022-07-28T16:06:59.517Z,29.60
2022-07-28T16:09:46.465Z,29.60
2022-07-28T16:12:15.405Z,29.60
2022-07-28T16:14:42.837Z,29.70
2022-07-28T16:17:11.176Z,29.70
2022-07-28T16:19:48.880Z,29.70
2022-07-28T16:22:18.699Z,29.60
2022-07-28T16:24:46.346Z,29.60
2022-07-28T16:27:15.187Z,29.60
2022-07-28T16:29:43.571Z,29.60
2022-07-28T16:32:11.476Z,29.60
2022-07-28T16:34:39.235Z,29.50
2022-07-28T16:37:06.877Z,29.60
2022-07-28T16:39:35.035Z,29.60
2022-07-28T16:42:03.267Z,29.60
2022-07-28T16:44:31.178Z,29.60
2022-07-28T16:46:59.245Z,29.60
2022-07-28T16:49:26.797Z,29.60
2022-07-28T16:51:55.761Z,29.60
2022-07-28T16:54:23.578Z,29.50
2022-07-28T16:56:52.283Z,29.40
2022-07-28T16:59:19.763Z,29.40
2022-07-28T17:01:47.127Z,29.30
2022-07-28T17:04:16.211Z,29.30
2022-07-28T17:06:44.118Z,29.20
2022-07-28T17:09:11.883Z,29.20
2022-07-28T17:11:41.916Z,29.10
2022-07-28T17:14:10.794Z,29.10
2022-07-28T17:16:38.172Z,29.10
2022-07-28T17:19:05.907Z,29.00
2022-07-28T17:21:33.259Z,29.00
2022-07-28T17:24:00.618Z,28.80
2022-07-28T17:29:17.373Z,28.80
2022-07-28T17:31:44.947Z,28.70
2022-07-28T17:34:12.646Z,28.70
2022-07-28T17:36:41.942Z,28.60
2022-07-28T17:39:10.084Z,28.60
2022-07-28T17:41:38.763Z,28.40
2022-07-28T17:44:07.268Z,28.30
2022-07-28T17:46:37.483Z,28.20
2022-07-28T17:49:06.650Z,28.00
2022-07-28T17:51:33.849Z,27.90
2022-07-28T17:54:01.117Z,27.90
2022-07-28T17:56:28.493Z,27.80
2022-07-28T17:58:56.043Z,27.80
2022-07-28T18:01:23.410Z,27.70
2022-07-28T18:03:57.156Z,27.70
2022-07-28T18:06:34.834Z,27.70
2022-07-28T18:09:06.522Z,27.60
2022-07-28T18:11:55.428Z,27.60
2022-07-28T18:14:24.421Z,27.60
2022-07-28T18:16:51.818Z,27.50
2022-07-28T18:19:19.131Z,27.50
2022-07-28T18:21:46.530Z,27.50
2022-07-28T18:24:13.966Z,27.40
2022-07-28T18:26:41.652Z,27.40
2022-07-28T18:29:09.462Z,27.30
2022-07-28T18:31:43.918Z,27.30
2022-07-28T18:34:14.116Z,27.30
2022-07-28T18:36:41.972Z,27.20
2022-07-28T18:39:09.264Z,27.20
2022-07-28T18:41:46.597Z,27.20
2022-07-28T18:44:19.264Z,27.10
2022-07-28T18:46:47.410Z,27.10
2022-07-28T18:49:15.306Z,27.10
2022-07-28T18:51:45.538Z,27.00
2022-07-28T18:54:17.408Z,27.00
2022-07-28T18:56:46.182Z,26.90
2022-07-28T18:59:13.827Z,26.90
2022-07-28T19:01:41.241Z,26.80
2022-07-28T19:04:08.689Z,26.80
2022-07-28T19:06:36.421Z,26.80
2022-07-28T19:09:05.128Z,26.70
2022-07-28T19:11:32.974Z,26.70
2022-07-28T19:14:00.779Z,26.70
2022-07-28T19:16:28.057Z,26.70
2022-07-28T19:18:55.614Z,26.60
2022-07-28T19:21:24.529Z,26.60
2022-07-28T19:23:53.151Z,26.60
2022-07-28T19:26:20.621Z,26.50
2022-07-28T19:28:47.987Z,26.50
2022-07-28T19:31:15.778Z,26.50
2022-07-28T19:33:44.152Z,26.40
2022-07-28T19:36:16.072Z,26.40
2022-07-28T19:38:44.457Z,26.40
2022-07-28T19:41:13.456Z,26.30
2022-07-28T19:43:40.945Z,26.30
2022-07-28T19:46:08.522Z,26.30
2022-07-28T19:48:36.004Z,26.20
2022-07-28T19:51:03.965Z,26.20
2022-07-28T19:53:32.008Z,26.20
2022-07-28T19:55:59.956Z,26.20
2022-07-28T19:58:28.059Z,26.10
2022-07-28T20:00:56.470Z,26.10
2022-07-28T20:04:01.576Z,26.00
2022-07-28T20:06:12.569Z,26.00
2022-07-28T20:08:40.450Z,26.00
2022-07-28T20:11:08.457Z,26.10
2022-07-28T20:13:35.804Z,26.10
2022-07-28T20:16:03.102Z,26.10
2022-07-28T20:18:30.564Z,26.10
2022-07-28T20:20:57.914Z,26.10
2022-07-28T20:23:25.235Z,26.00
2022-07-28T20:25:52.679Z,26.00
2022-07-28T20:28:22.013Z,26.00
2022-07-28T20:30:49.564Z,26.00
2022-07-28T20:33:17.005Z,26.00
2022-07-28T20:35:44.418Z,25.90
2022-07-28T20:38:11.925Z,25.90
2022-07-28T20:40:39.159Z,25.90
2022-07-28T20:43:06.361Z,25.80
2022-07-28T20:45:33.703Z,25.80
2022-07-28T20:48:01.435Z,25.80
2022-07-28T20:50:29.679Z,25.70
2022-07-28T20:52:56.922Z,25.70
2022-07-28T20:55:24.624Z,25.70
2022-07-28T20:57:54.043Z,25.60
2022-07-28T21:00:21.852Z,25.60
2022-07-28T21:02:49.509Z,25.50
2022-07-28T21:05:26.859Z,25.50
2022-07-28T21:08:09.150Z,25.40
2022-07-28T21:10:37.346Z,25.40
2022-07-28T21:13:04.739Z,25.40
2022-07-28T21:15:32.386Z,25.30
2022-07-28T21:17:59.694Z,25.30
2022-07-28T21:20:27.427Z,25.30
2022-07-28T21:22:54.720Z,25.30
2022-07-28T21:25:22.937Z,25.30
2022-07-28T21:28:08.684Z,25.20
2022-07-28T21:30:35.990Z,25.20
2022-07-28T21:33:03.701Z,25.10
2022-07-28T21:35:31.222Z,25.10
2022-07-28T21:37:58.626Z,25.10
2022-07-28T21:40:27.155Z,25.00
2022-07-28T21:42:54.893Z,25.00
2022-07-28T21:45:22.591Z,25.10
2022-07-28T21:47:49.948Z,25.00
2022-07-28T21:50:17.402Z,25.00
2022-07-28T21:52:44.727Z,25.00
2022-07-28T21:55:12.370Z,25.00
2022-07-28T21:57:39.712Z,24.90
2022-07-28T22:00:12.107Z,24.90
2022-07-28T22:02:40.867Z,24.90
2022-07-28T22:05:08.725Z,24.90
2022-07-28T22:07:36.004Z,24.90
2022-07-28T22:10:04.033Z,24.90
2022-07-28T22:12:31.316Z,24.90
2022-07-28T22:14:58.706Z,24.90
2022-07-28T22:17:26.127Z,24.90
2022-07-28T22:19:53.403Z,24.80
2022-07-28T22:22:20.680Z,24.70
2022-07-28T22:24:48.193Z,24.80
2022-07-28T22:27:15.616Z,24.80
2022-07-28T22:29:43.546Z,24.70
2022-07-28T22:32:17.718Z,24.70
2022-07-28T22:34:54.047Z,24.70
2022-07-28T22:37:21.218Z,24.60
2022-07-28T22:39:48.838Z,24.70
2022-07-28T22:42:16.566Z,24.70
2022-07-28T22:44:43.855Z,24.60
2022-07-28T22:47:11.255Z,24.60
2022-07-28T22:49:38.844Z,24.60
2022-07-28T22:52:06.223Z,24.60
2022-07-28T22:54:38.245Z,24.70
2022-07-28T22:57:06.384Z,24.60
2022-07-28T22:59:37.230Z,24.60
2022-07-28T23:02:07.517Z,24.50
2022-07-28T23:04:35.449Z,24.50
2022-07-28T23:07:03.302Z,24.40
2022-07-28T23:09:30.546Z,24.50
2022-07-28T23:11:57.988Z,24.50
2022-07-28T23:14:25.520Z,24.40
2022-07-28T23:16:52.960Z,24.40
2022-07-28T23:19:20.301Z,24.40
2022-07-28T23:21:47.637Z,24.40
2022-07-28T23:24:15.069Z,24.40
2022-07-28T23:26:42.613Z,24.30
2022-07-28T23:29:09.999Z,24.30
2022-07-28T23:31:37.222Z,24.30
2022-07-28T23:34:04.433Z,24.20
2022-07-28T23:36:31.691Z,24.20
2022-07-28T23:39:00.072Z,24.20
2022-07-28T23:41:28.225Z,24.10
2022-07-28T23:43:56.091Z,24.10
2022-07-28T23:46:23.674Z,24.10
2022-07-28T23:48:51.125Z,24.10
2022-07-28T23:51:18.718Z,24.10
2022-07-28T23:53:46.199Z,24.10
2022-07-28T23:56:14.598Z,24.00
2022-07-28T23:58:42.399Z,24.00
